aviador You're here:

CYLD Decoded Metar

CHAPLEAU in ON, CANADA
Report Time2018-02-22 14:00:00
UTC Time2018-02-22 14:53:21
Flight Rules vfr VFR
Wind200° at 06 kt
W.Decomp.*RWY 23: 5.6 kt HW 2.2 kt LCW
RWY 28: 2.0 kt HW 5.7 kt LCW
W.Rank200° ranks 2
Current wind is below 200° avg. (7.4)
Visibility9999 m
Phenomena:N/A
Clouds:Few 240 Hf
Expected CloudBase > 800 ft AGL from Temp-Dew spread
CeilingNone
Temp-13°C (ISA -25)
Dew Point-15°C (85% RH)
AAT-18.5°C
QNH1037 hPa
Density Alt-2,467 ft
Elevation1,467 ft
Report Wrong Elevation
Raw Report
CYLD 221400Z 20006KT 15SM FEW240 M13/M15 A3062 RMK CS1 SLP413=

Extra information for CYLD:More info

Metar Taf Metar & Taf Last 4 Metars F.Rules Stats Wind Profile Meteogram Temp Stats Airport Information Weather charts Add Link Nearby VenuesMetar ALERT Operation Metar Decoded Social comments